Hardin, MT

6:10 PM MDT on July 27, 2016 (GMT -0600)
Billings Logan International | | Change Station

Elev 3570 ft 45.81 °N, 108.54 °W | Updated 17 minutes ago

Thunderstorm
Thunderstorm
78 °F
Feels Like 78 °F
N
15
Wind Variable Wind from NE

Today
High -- | Low -- °F
--% Chance of Precip.
Yesterday
High -- | Low -- °F
Precip. -- in
Pressure 30.03 in
Visibility 10.0 miles
Clouds Few 2000 ft
Scattered Clouds 5000 ft
Mostly Cloudy 10000 ft
Dew Point 57 °F
Humidity 48%
Rainfall 0.00 in
Snow Depth Not available.
5:48 AM 8:44 PM
Last Quarter, 38% visible
METAR KBIL 272353Z 05013KT 10SM TS FEW020 SCT050CB BKN100 26/14 A3011 RMK AO2 TSB48 SLP168 FRQ LTGICCG NW-N TS NW-N MOV SE 60000 T02560139 10300 20256 53000 $
Pressure 30.03 in
Visibility 10.0 miles
Clouds Few 2000 ft
Scattered Clouds 5000 ft
Mostly Cloudy 10000 ft
Dew Point 57 °F
Humidity 48%
Rainfall 0.00 in
Snow Depth Not available.
5:48 AM 8:44 PM
Last Quarter, 38% visible
METAR KBIL 272353Z 05013KT 10SM TS FEW020 SCT050CB BKN100 26/14 A3011 RMK AO2 TSB48 SLP168 FRQ LTGICCG NW-N TS NW-N MOV SE 60000 T02560139 10300 20256 53000 $

10-Day Weather Forecast

Almanac

Astronomy

Jul. 27, 2016 Rise Set
Actual Time
Civil Twilight
Nautical Twilight
Astronomical Twilight
Moon
Length of Visible Light
Length of Day
Tomorrow will be .
, % of the Moon is Illuminated

Today's Extremes

State Highs State Lows

Community

WunderPhotos

Upload Photos

1,927,963 photos uploaded!

WunderBlog® & News

Nearby

Air Quality

  Air Quality AQ Index Pollutant
Not available.

Snow Depth

Station Depth Elevation

Earthquake Activity

City Distance Mag. Time & Date
Minimum magnitude displayed is 2.5.

Coastal Water Temperatures

Place Temperature

Stations

Nearby Weather Stations

Station Location Temp. Windchill Dew Point Humidity Wind Precip. Elev Updated Type
                   

Watches & Warnings

There are currently no watches in effect.